sensor_id;sensor_type;location;lat;lon;timestamp;P1;durP1;ratioP1;P2;durP2;ratioP2
8986;SDS011;4529;51.360;12.474;2023-07-22T00:01:27;3.40;;;3.10;;
8986;SDS011;4529;51.360;12.474;2023-07-22T00:06:32;4.03;;;3.30;;
8986;SDS011;4529;51.360;12.474;2023-07-22T00:11:36;4.63;;;3.50;;
8986;SDS011;4529;51.360;12.474;2023-07-22T00:16:40;5.03;;;3.30;;
8986;SDS011;4529;51.360;12.474;2023-07-22T00:21:44;4.80;;;3.60;;
8986;SDS011;4529;51.360;12.474;2023-07-22T00:26:48;4.07;;;3.67;;
8986;SDS011;4529;51.360;12.474;2023-07-22T00:31:57;4.30;;;3.90;;
8986;SDS011;4529;51.360;12.474;2023-07-22T00:37:01;4.57;;;3.90;;
8986;SDS011;4529;51.360;12.474;2023-07-22T00:42:04;5.10;;;3.90;;
8986;SDS011;4529;51.360;12.474;2023-07-22T00:47:08;4.53;;;3.73;;
8986;SDS011;4529;51.360;12.474;2023-07-22T00:52:12;5.73;;;4.00;;
8986;SDS011;4529;51.360;12.474;2023-07-22T00:57:16;4.50;;;3.83;;
8986;SDS011;4529;51.360;12.474;2023-07-22T01:02:23;4.27;;;3.90;;
8986;SDS011;4529;51.360;12.474;2023-07-22T01:07:27;4.97;;;4.40;;
8986;SDS011;4529;51.360;12.474;2023-07-22T01:12:30;4.43;;;4.13;;
8986;SDS011;4529;51.360;12.474;2023-07-22T01:17:34;4.70;;;4.30;;
8986;SDS011;4529;51.360;12.474;2023-07-22T01:22:37;4.80;;;4.40;;
8986;SDS011;4529;51.360;12.474;2023-07-22T01:27:41;5.47;;;4.40;;
8986;SDS011;4529;51.360;12.474;2023-07-22T01:32:44;4.57;;;4.17;;
8986;SDS011;4529;51.360;12.474;2023-07-22T01:37:48;4.93;;;4.43;;
8986;SDS011;4529;51.360;12.474;2023-07-22T01:42:52;5.33;;;4.70;;
8986;SDS011;4529;51.360;12.474;2023-07-22T01:47:56;4.90;;;4.50;;
8986;SDS011;4529;51.360;12.474;2023-07-22T01:53:01;5.00;;;4.47;;
8986;SDS011;4529;51.360;12.474;2023-07-22T01:58:05;7.30;;;4.67;;
8986;SDS011;4529;51.360;12.474;2023-07-22T02:03:09;5.10;;;4.67;;
8986;SDS011;4529;51.360;12.474;2023-07-22T02:08:13;7.43;;;5.20;;
8986;SDS011;4529;51.360;12.474;2023-07-22T02:13:17;5.10;;;4.60;;
8986;SDS011;4529;51.360;12.474;2023-07-22T02:18:21;6.03;;;4.77;;
8986;SDS011;4529;51.360;12.474;2023-07-22T02:23:25;6.80;;;5.07;;
8986;SDS011;4529;51.360;12.474;2023-07-22T02:28:29;5.97;;;4.83;;
8986;SDS011;4529;51.360;12.474;2023-07-22T02:33:34;5.30;;;4.80;;
8986;SDS011;4529;51.360;12.474;2023-07-22T02:38:38;5.57;;;5.07;;
8986;SDS011;4529;51.360;12.474;2023-07-22T02:43:42;6.13;;;5.53;;
8986;SDS011;4529;51.360;12.474;2023-07-22T02:48:46;5.43;;;4.93;;
8986;SDS011;4529;51.360;12.474;2023-07-22T02:53:50;6.20;;;5.33;;
8986;SDS011;4529;51.360;12.474;2023-07-22T02:58:54;7.00;;;4.90;;
8986;SDS011;4529;51.360;12.474;2023-07-22T03:03:57;6.20;;;5.60;;
8986;SDS011;4529;51.360;12.474;2023-07-22T03:09:01;6.53;;;5.90;;
8986;SDS011;4529;51.360;12.474;2023-07-22T03:14:05;7.20;;;5.37;;
8986;SDS011;4529;51.360;12.474;2023-07-22T03:19:09;5.83;;;5.17;;
8986;SDS011;4529;51.360;12.474;2023-07-22T03:24:12;6.00;;;5.40;;
8986;SDS011;4529;51.360;12.474;2023-07-22T03:29:16;6.03;;;5.43;;
8986;SDS011;4529;51.360;12.474;2023-07-22T03:34:19;6.20;;;5.60;;
8986;SDS011;4529;51.360;12.474;2023-07-22T03:39:23;6.80;;;5.37;;
8986;SDS011;4529;51.360;12.474;2023-07-22T03:44:26;5.70;;;5.20;;
8986;SDS011;4529;51.360;12.474;2023-07-22T03:49:30;7.30;;;5.10;;
8986;SDS011;4529;51.360;12.474;2023-07-22T03:54:33;5.80;;;4.93;;
8986;SDS011;4529;51.360;12.474;2023-07-22T03:59:36;5.97;;;5.37;;
8986;SDS011;4529;51.360;12.474;2023-07-22T04:04:40;6.37;;;4.87;;
8986;SDS011;4529;51.360;12.474;2023-07-22T04:09:44;6.60;;;5.20;;
8986;SDS011;4529;51.360;12.474;2023-07-22T04:14:47;5.50;;;4.77;;
8986;SDS011;4529;51.360;12.474;2023-07-22T04:19:51;6.13;;;5.37;;
8986;SDS011;4529;51.360;12.474;2023-07-22T04:24:54;6.07;;;5.30;;
8986;SDS011;4529;51.360;12.474;2023-07-22T04:29:57;4.57;;;4.10;;
8986;SDS011;4529;51.360;12.474;2023-07-22T04:35:01;5.77;;;4.23;;
8986;SDS011;4529;51.360;12.474;2023-07-22T04:40:04;7.43;;;3.80;;
8986;SDS011;4529;51.360;12.474;2023-07-22T04:45:08;4.77;;;4.27;;
8986;SDS011;4529;51.360;12.474;2023-07-22T04:50:12;4.90;;;4.40;;
8986;SDS011;4529;51.360;12.474;2023-07-22T04:55:15;8.53;;;4.30;;
8986;SDS011;4529;51.360;12.474;2023-07-22T05:00:18;5.33;;;4.83;;
8986;SDS011;4529;51.360;12.474;2023-07-22T05:05:22;8.03;;;5.90;;
8986;SDS011;4529;51.360;12.474;2023-07-22T05:10:25;9.73;;;6.10;;
8986;SDS011;4529;51.360;12.474;2023-07-22T05:15:29;5.93;;;5.00;;
8986;SDS011;4529;51.360;12.474;2023-07-22T05:20:32;6.47;;;5.60;;
8986;SDS011;4529;51.360;12.474;2023-07-22T05:25:36;10.83;;;5.87;;
8986;SDS011;4529;51.360;12.474;2023-07-22T05:30:39;5.93;;;5.03;;
8986;SDS011;4529;51.360;12.474;2023-07-22T05:35:43;5.80;;;5.20;;
8986;SDS011;4529;51.360;12.474;2023-07-22T05:40:46;7.83;;;5.57;;
8986;SDS011;4529;51.360;12.474;2023-07-22T05:45:50;8.30;;;5.80;;
8986;SDS011;4529;51.360;12.474;2023-07-22T05:50:54;8.40;;;5.33;;
8986;SDS011;4529;51.360;12.474;2023-07-22T05:55:58;5.50;;;5.00;;
8986;SDS011;4529;51.360;12.474;2023-07-22T06:01:02;6.30;;;5.20;;
8986;SDS011;4529;51.360;12.474;2023-07-22T06:06:06;7.87;;;5.27;;
8986;SDS011;4529;51.360;12.474;2023-07-22T06:11:10;6.90;;;5.17;;
8986;SDS011;4529;51.360;12.474;2023-07-22T06:16:14;7.93;;;5.60;;
8986;SDS011;4529;51.360;12.474;2023-07-22T06:21:18;10.50;;;5.97;;
8986;SDS011;4529;51.360;12.474;2023-07-22T06:26:22;6.33;;;5.57;;
8986;SDS011;4529;51.360;12.474;2023-07-22T06:31:25;6.97;;;5.50;;
8986;SDS011;4529;51.360;12.474;2023-07-22T06:36:29;6.27;;;5.33;;
8986;SDS011;4529;51.360;12.474;2023-07-22T06:41:32;6.10;;;5.50;;
8986;SDS011;4529;51.360;12.474;2023-07-22T06:46:36;6.97;;;5.00;;
8986;SDS011;4529;51.360;12.474;2023-07-22T06:51:39;7.90;;;5.37;;
8986;SDS011;4529;51.360;12.474;2023-07-22T06:56:43;6.57;;;4.77;;
8986;SDS011;4529;51.360;12.474;2023-07-22T07:01:46;4.90;;;4.30;;
8986;SDS011;4529;51.360;12.474;2023-07-22T07:06:50;5.50;;;4.23;;
8986;SDS011;4529;51.360;12.474;2023-07-22T07:11:53;5.57;;;4.30;;
8986;SDS011;4529;51.360;12.474;2023-07-22T07:16:57;5.77;;;4.20;;
8986;SDS011;4529;51.360;12.474;2023-07-22T07:22:00;4.87;;;3.67;;
8986;SDS011;4529;51.360;12.474;2023-07-22T07:27:04;4.63;;;3.50;;
8986;SDS011;4529;51.360;12.474;2023-07-22T07:32:08;4.13;;;3.70;;
8986;SDS011;4529;51.360;12.474;2023-07-22T07:37:12;4.97;;;3.70;;
8986;SDS011;4529;51.360;12.474;2023-07-22T07:42:16;4.23;;;3.83;;
8986;SDS011;4529;51.360;12.474;2023-07-22T07:47:20;3.60;;;3.30;;
8986;SDS011;4529;51.360;12.474;2023-07-22T07:52:24;4.17;;;3.77;;
8986;SDS011;4529;51.360;12.474;2023-07-22T07:57:27;3.70;;;3.40;;
8986;SDS011;4529;51.360;12.474;2023-07-22T08:02:30;3.90;;;3.50;;
8986;SDS011;4529;51.360;12.474;2023-07-22T08:07:34;3.63;;;3.33;;
8986;SDS011;4529;51.360;12.474;2023-07-22T08:12:37;6.83;;;3.50;;
8986;SDS011;4529;51.360;12.474;2023-07-22T08:17:41;4.23;;;3.20;;
8986;SDS011;4529;51.360;12.474;2023-07-22T08:22:44;3.40;;;3.10;;
8986;SDS011;4529;51.360;12.474;2023-07-22T08:27:48;3.40;;;2.93;;
8986;SDS011;4529;51.360;12.474;2023-07-22T08:32:51;4.17;;;2.87;;
8986;SDS011;4529;51.360;12.474;2023-07-22T08:37:55;5.40;;;3.20;;
8986;SDS011;4529;51.360;12.474;2023-07-22T08:42:58;3.30;;;3.00;;
8986;SDS011;4529;51.360;12.474;2023-07-22T08:48:06;3.50;;;3.20;;
8986;SDS011;4529;51.360;12.474;2023-07-22T08:53:09;3.87;;;3.40;;
8986;SDS011;4529;51.360;12.474;2023-07-22T08:58:16;3.67;;;3.37;;
8986;SDS011;4529;51.360;12.474;2023-07-22T09:03:19;4.10;;;3.67;;
8986;SDS011;4529;51.360;12.474;2023-07-22T09:08:23;6.07;;;3.30;;
8986;SDS011;4529;51.360;12.474;2023-07-22T09:13:28;3.73;;;3.33;;
8986;SDS011;4529;51.360;12.474;2023-07-22T09:18:35;4.60;;;3.23;;
8986;SDS011;4529;51.360;12.474;2023-07-22T09:23:38;4.63;;;2.90;;
8986;SDS011;4529;51.360;12.474;2023-07-22T09:28:48;3.60;;;2.70;;
8986;SDS011;4529;51.360;12.474;2023-07-22T09:33:58;4.43;;;3.17;;
8986;SDS011;4529;51.360;12.474;2023-07-22T09:39:00;2.87;;;2.67;;
8986;SDS011;4529;51.360;12.474;2023-07-22T09:44:03;3.30;;;3.00;;
8986;SDS011;4529;51.360;12.474;2023-07-22T09:49:09;2.77;;;2.57;;
8986;SDS011;4529;51.360;12.474;2023-07-22T09:54:10;3.30;;;3.03;;
8986;SDS011;4529;51.360;12.474;2023-07-22T09:59:14;3.43;;;3.13;;
8986;SDS011;4529;51.360;12.474;2023-07-22T10:04:20;3.37;;;2.70;;
8986;SDS011;4529;51.360;12.474;2023-07-22T10:09:23;2.90;;;2.70;;
8986;SDS011;4529;51.360;12.474;2023-07-22T10:14:27;3.20;;;2.60;;
8986;SDS011;4529;51.360;12.474;2023-07-22T10:19:31;2.90;;;2.60;;
8986;SDS011;4529;51.360;12.474;2023-07-22T10:24:34;2.90;;;2.60;;
8986;SDS011;4529;51.360;12.474;2023-07-22T10:29:38;3.00;;;2.80;;
8986;SDS011;4529;51.360;12.474;2023-07-22T10:34:41;9.37;;;3.10;;
8986;SDS011;4529;51.360;12.474;2023-07-22T10:39:44;3.37;;;2.60;;
8986;SDS011;4529;51.360;12.474;2023-07-22T10:44:48;2.80;;;2.60;;
8986;SDS011;4529;51.360;12.474;2023-07-22T10:49:51;3.00;;;2.70;;
8986;SDS011;4529;51.360;12.474;2023-07-22T10:54:55;3.13;;;2.83;;
8986;SDS011;4529;51.360;12.474;2023-07-22T10:59:58;3.00;;;2.70;;
8986;SDS011;4529;51.360;12.474;2023-07-22T11:05:03;2.47;;;2.27;;
8986;SDS011;4529;51.360;12.474;2023-07-22T11:10:18;2.93;;;2.50;;
8986;SDS011;4529;51.360;12.474;2023-07-22T11:15:19;3.10;;;2.80;;
8986;SDS011;4529;51.360;12.474;2023-07-22T11:20:22;2.87;;;2.43;;
8986;SDS011;4529;51.360;12.474;2023-07-22T11:25:25;2.37;;;2.27;;
8986;SDS011;4529;51.360;12.474;2023-07-22T11:30:29;2.60;;;2.30;;
8986;SDS011;4529;51.360;12.474;2023-07-22T11:35:32;2.37;;;2.17;;
8986;SDS011;4529;51.360;12.474;2023-07-22T11:40:36;4.40;;;2.27;;
8986;SDS011;4529;51.360;12.474;2023-07-22T11:45:39;2.67;;;2.40;;
8986;SDS011;4529;51.360;12.474;2023-07-22T11:50:43;2.53;;;2.33;;
8986;SDS011;4529;51.360;12.474;2023-07-22T11:55:46;2.40;;;2.20;;
8986;SDS011;4529;51.360;12.474;2023-07-22T12:01:01;2.63;;;2.40;;
8986;SDS011;4529;51.360;12.474;2023-07-22T12:06:08;2.47;;;2.27;;
8986;SDS011;4529;51.360;12.474;2023-07-22T12:11:22;2.60;;;2.40;;
8986;SDS011;4529;51.360;12.474;2023-07-22T12:16:24;2.37;;;2.07;;
8986;SDS011;4529;51.360;12.474;2023-07-22T12:21:28;2.20;;;2.10;;
8986;SDS011;4529;51.360;12.474;2023-07-22T12:26:31;2.50;;;2.20;;
8986;SDS011;4529;51.360;12.474;2023-07-22T12:31:35;2.80;;;2.60;;
8986;SDS011;4529;51.360;12.474;2023-07-22T12:36:38;3.50;;;2.73;;
8986;SDS011;4529;51.360;12.474;2023-07-22T12:41:42;2.60;;;2.40;;
8986;SDS011;4529;51.360;12.474;2023-07-22T12:46:45;2.50;;;2.30;;
8986;SDS011;4529;51.360;12.474;2023-07-22T12:51:49;3.27;;;2.87;;
8986;SDS011;4529;51.360;12.474;2023-07-22T12:56:53;5.73;;;2.30;;
8986;SDS011;4529;51.360;12.474;2023-07-22T13:01:57;2.80;;;2.53;;
8986;SDS011;4529;51.360;12.474;2023-07-22T13:07:00;2.80;;;2.60;;
8986;SDS011;4529;51.360;12.474;2023-07-22T13:12:04;2.97;;;2.70;;
8986;SDS011;4529;51.360;12.474;2023-07-22T13:17:07;3.00;;;2.70;;
8986;SDS011;4529;51.360;12.474;2023-07-22T13:22:11;4.00;;;2.70;;
8986;SDS011;4529;51.360;12.474;2023-07-22T13:27:16;2.63;;;2.43;;
8986;SDS011;4529;51.360;12.474;2023-07-22T13:32:20;2.70;;;2.50;;
8986;SDS011;4529;51.360;12.474;2023-07-22T13:37:24;3.17;;;2.80;;
8986;SDS011;4529;51.360;12.474;2023-07-22T13:42:27;2.67;;;2.47;;
8986;SDS011;4529;51.360;12.474;2023-07-22T13:47:31;2.60;;;2.40;;
8986;SDS011;4529;51.360;12.474;2023-07-22T13:52:35;5.17;;;2.60;;
8986;SDS011;4529;51.360;12.474;2023-07-22T13:57:38;4.67;;;2.50;;
8986;SDS011;4529;51.360;12.474;2023-07-22T14:02:42;3.00;;;2.80;;
8986;SDS011;4529;51.360;12.474;2023-07-22T14:07:46;3.17;;;2.67;;
8986;SDS011;4529;51.360;12.474;2023-07-22T14:12:50;3.00;;;2.80;;
8986;SDS011;4529;51.360;12.474;2023-07-22T14:17:54;2.80;;;2.60;;
8986;SDS011;4529;51.360;12.474;2023-07-22T14:22:58;2.83;;;2.63;;
8986;SDS011;4529;51.360;12.474;2023-07-22T14:28:03;3.10;;;2.80;;
8986;SDS011;4529;51.360;12.474;2023-07-22T14:33:06;3.23;;;2.97;;
8986;SDS011;4529;51.360;12.474;2023-07-22T14:38:10;3.20;;;2.80;;
8986;SDS011;4529;51.360;12.474;2023-07-22T14:43:13;2.87;;;2.57;;
8986;SDS011;4529;51.360;12.474;2023-07-22T14:48:17;2.80;;;2.60;;
8986;SDS011;4529;51.360;12.474;2023-07-22T14:53:20;2.97;;;2.67;;
8986;SDS011;4529;51.360;12.474;2023-07-22T14:58:23;2.87;;;2.60;;
8986;SDS011;4529;51.360;12.474;2023-07-22T15:03:27;3.30;;;2.97;;
8986;SDS011;4529;51.360;12.474;2023-07-22T15:08:30;2.70;;;2.50;;
8986;SDS011;4529;51.360;12.474;2023-07-22T15:13:34;3.57;;;2.80;;
8986;SDS011;4529;51.360;12.474;2023-07-22T15:18:37;3.43;;;2.50;;
8986;SDS011;4529;51.360;12.474;2023-07-22T15:23:41;2.93;;;2.73;;
8986;SDS011;4529;51.360;12.474;2023-07-22T15:28:44;3.97;;;2.93;;
8986;SDS011;4529;51.360;12.474;2023-07-22T15:33:48;4.87;;;3.07;;
8986;SDS011;4529;51.360;12.474;2023-07-22T15:38:51;3.57;;;3.27;;
8986;SDS011;4529;51.360;12.474;2023-07-22T15:43:55;3.73;;;2.90;;
8986;SDS011;4529;51.360;12.474;2023-07-22T15:48:58;3.20;;;3.00;;
8986;SDS011;4529;51.360;12.474;2023-07-22T15:54:02;3.27;;;3.07;;
8986;SDS011;4529;51.360;12.474;2023-07-22T15:59:05;3.10;;;2.90;;
8986;SDS011;4529;51.360;12.474;2023-07-22T16:04:08;3.43;;;3.13;;
8986;SDS011;4529;51.360;12.474;2023-07-22T16:09:12;3.47;;;3.13;;
8986;SDS011;4529;51.360;12.474;2023-07-22T16:14:16;3.43;;;3.17;;
8986;SDS011;4529;51.360;12.474;2023-07-22T16:19:20;3.63;;;3.33;;
8986;SDS011;4529;51.360;12.474;2023-07-22T16:24:24;3.40;;;3.07;;
8986;SDS011;4529;51.360;12.474;2023-07-22T16:29:28;3.03;;;2.80;;
8986;SDS011;4529;51.360;12.474;2023-07-22T16:34:35;3.40;;;3.10;;
8986;SDS011;4529;51.360;12.474;2023-07-22T16:39:36;3.50;;;3.20;;
8986;SDS011;4529;51.360;12.474;2023-07-22T16:44:40;3.60;;;3.30;;
8986;SDS011;4529;51.360;12.474;2023-07-22T16:49:43;3.40;;;3.10;;
8986;SDS011;4529;51.360;12.474;2023-07-22T16:54:47;3.13;;;2.93;;
8986;SDS011;4529;51.360;12.474;2023-07-22T16:59:50;4.10;;;3.40;;
8986;SDS011;4529;51.360;12.474;2023-07-22T17:04:54;3.63;;;3.33;;
8986;SDS011;4529;51.360;12.474;2023-07-22T17:09:57;3.30;;;3.10;;
8986;SDS011;4529;51.360;12.474;2023-07-22T17:15:00;3.50;;;3.20;;
8986;SDS011;4529;51.360;12.474;2023-07-22T17:20:04;4.10;;;3.40;;
8986;SDS011;4529;51.360;12.474;2023-07-22T17:25:08;3.67;;;3.37;;
8986;SDS011;4529;51.360;12.474;2023-07-22T17:30:13;4.00;;;3.60;;
8986;SDS011;4529;51.360;12.474;2023-07-22T17:35:20;3.20;;;2.90;;
8986;SDS011;4529;51.360;12.474;2023-07-22T17:40:23;3.67;;;3.30;;
8986;SDS011;4529;51.360;12.474;2023-07-22T17:45:27;4.10;;;3.60;;
8986;SDS011;4529;51.360;12.474;2023-07-22T17:50:30;3.57;;;3.27;;
8986;SDS011;4529;51.360;12.474;2023-07-22T17:55:34;3.83;;;3.43;;
8986;SDS011;4529;51.360;12.474;2023-07-22T18:00:37;5.63;;;3.90;;
8986;SDS011;4529;51.360;12.474;2023-07-22T18:05:47;3.77;;;3.47;;
8986;SDS011;4529;51.360;12.474;2023-07-22T18:10:50;5.63;;;4.20;;
8986;SDS011;4529;51.360;12.474;2023-07-22T18:15:53;4.33;;;3.93;;
8986;SDS011;4529;51.360;12.474;2023-07-22T18:20:57;4.13;;;3.50;;
8986;SDS011;4529;51.360;12.474;2023-07-22T18:26:00;4.23;;;3.27;;
8986;SDS011;4529;51.360;12.474;2023-07-22T18:31:04;3.83;;;3.50;;
8986;SDS011;4529;51.360;12.474;2023-07-22T18:36:07;3.50;;;3.20;;
8986;SDS011;4529;51.360;12.474;2023-07-22T18:41:11;5.60;;;3.60;;
8986;SDS011;4529;51.360;12.474;2023-07-22T18:46:20;3.70;;;3.40;;
8986;SDS011;4529;51.360;12.474;2023-07-22T18:51:23;5.17;;;4.60;;
8986;SDS011;4529;51.360;12.474;2023-07-22T18:56:27;8.70;;;6.80;;
8986;SDS011;4529;51.360;12.474;2023-07-22T19:01:30;7.43;;;5.77;;
8986;SDS011;4529;51.360;12.474;2023-07-22T19:06:33;5.70;;;4.93;;
8986;SDS011;4529;51.360;12.474;2023-07-22T19:11:38;5.80;;;3.80;;
8986;SDS011;4529;51.360;12.474;2023-07-22T19:16:56;4.13;;;3.50;;
8986;SDS011;4529;51.360;12.474;2023-07-22T19:22:00;4.53;;;4.13;;
8986;SDS011;4529;51.360;12.474;2023-07-22T19:27:05;7.77;;;5.83;;
8986;SDS011;4529;51.360;12.474;2023-07-22T19:32:08;6.43;;;4.50;;
8986;SDS011;4529;51.360;12.474;2023-07-22T19:37:11;4.67;;;4.27;;
8986;SDS011;4529;51.360;12.474;2023-07-22T19:42:15;7.80;;;6.67;;
8986;SDS011;4529;51.360;12.474;2023-07-22T19:47:18;7.30;;;5.40;;
8986;SDS011;4529;51.360;12.474;2023-07-22T19:52:22;6.67;;;5.93;;
8986;SDS011;4529;51.360;12.474;2023-07-22T19:57:25;6.53;;;5.20;;
8986;SDS011;4529;51.360;12.474;2023-07-22T20:02:29;5.70;;;4.90;;
8986;SDS011;4529;51.360;12.474;2023-07-22T20:07:33;6.23;;;4.20;;
8986;SDS011;4529;51.360;12.474;2023-07-22T20:12:37;8.07;;;5.00;;
8986;SDS011;4529;51.360;12.474;2023-07-22T20:17:43;8.47;;;5.00;;
8986;SDS011;4529;51.360;12.474;2023-07-22T20:22:46;7.07;;;5.17;;
8986;SDS011;4529;51.360;12.474;2023-07-22T20:27:53;8.23;;;6.83;;
8986;SDS011;4529;51.360;12.474;2023-07-22T20:33:02;6.63;;;5.00;;
8986;SDS011;4529;51.360;12.474;2023-07-22T20:38:06;6.10;;;4.70;;
8986;SDS011;4529;51.360;12.474;2023-07-22T20:43:09;4.40;;;3.80;;
8986;SDS011;4529;51.360;12.474;2023-07-22T20:48:13;6.10;;;4.33;;
8986;SDS011;4529;51.360;12.474;2023-07-22T20:53:16;6.47;;;4.50;;
8986;SDS011;4529;51.360;12.474;2023-07-22T20:58:21;6.87;;;5.03;;
8986;SDS011;4529;51.360;12.474;2023-07-22T21:03:24;7.60;;;5.23;;
8986;SDS011;4529;51.360;12.474;2023-07-22T21:08:28;6.20;;;4.93;;
8986;SDS011;4529;51.360;12.474;2023-07-22T21:13:32;6.27;;;5.60;;
8986;SDS011;4529;51.360;12.474;2023-07-22T21:18:36;8.10;;;6.10;;
8986;SDS011;4529;51.360;12.474;2023-07-22T21:23:40;6.87;;;5.43;;
8986;SDS011;4529;51.360;12.474;2023-07-22T21:28:44;7.20;;;5.40;;
8986;SDS011;4529;51.360;12.474;2023-07-22T21:33:48;8.47;;;5.77;;
8986;SDS011;4529;51.360;12.474;2023-07-22T21:38:52;6.10;;;4.90;;
8986;SDS011;4529;51.360;12.474;2023-07-22T21:43:56;6.87;;;4.50;;
8986;SDS011;4529;51.360;12.474;2023-07-22T21:49:00;5.20;;;4.20;;
8986;SDS011;4529;51.360;12.474;2023-07-22T21:54:04;6.13;;;4.60;;
8986;SDS011;4529;51.360;12.474;2023-07-22T21:59:08;10.70;;;4.57;;
8986;SDS011;4529;51.360;12.474;2023-07-22T22:04:12;7.43;;;4.63;;
8986;SDS011;4529;51.360;12.474;2023-07-22T22:09:17;5.77;;;4.43;;
8986;SDS011;4529;51.360;12.474;2023-07-22T22:14:21;6.07;;;4.00;;
8986;SDS011;4529;51.360;12.474;2023-07-22T22:19:25;5.50;;;4.30;;
8986;SDS011;4529;51.360;12.474;2023-07-22T22:24:29;5.07;;;4.10;;
8986;SDS011;4529;51.360;12.474;2023-07-22T22:29:33;5.83;;;4.27;;
8986;SDS011;4529;51.360;12.474;2023-07-22T22:34:37;4.37;;;3.97;;
8986;SDS011;4529;51.360;12.474;2023-07-22T22:39:40;6.43;;;4.20;;
8986;SDS011;4529;51.360;12.474;2023-07-22T22:44:44;6.63;;;3.83;;
8986;SDS011;4529;51.360;12.474;2023-07-22T22:49:47;3.77;;;3.40;;
8986;SDS011;4529;51.360;12.474;2023-07-22T22:54:50;5.03;;;3.50;;
8986;SDS011;4529;51.360;12.474;2023-07-22T22:59:54;4.20;;;3.43;;
8986;SDS011;4529;51.360;12.474;2023-07-22T23:04:57;4.27;;;3.50;;
8986;SDS011;4529;51.360;12.474;2023-07-22T23:10:01;4.23;;;3.70;;
8986;SDS011;4529;51.360;12.474;2023-07-22T23:15:07;4.67;;;3.40;;
8986;SDS011;4529;51.360;12.474;2023-07-22T23:20:11;4.40;;;3.50;;
8986;SDS011;4529;51.360;12.474;2023-07-22T23:25:15;5.93;;;3.67;;
8986;SDS011;4529;51.360;12.474;2023-07-22T23:30:19;3.77;;;3.43;;
8986;SDS011;4529;51.360;12.474;2023-07-22T23:35:23;3.73;;;3.33;;
8986;SDS011;4529;51.360;12.474;2023-07-22T23:40:27;4.17;;;3.30;;
8986;SDS011;4529;51.360;12.474;2023-07-22T23:45:31;5.03;;;3.60;;
8986;SDS011;4529;51.360;12.474;2023-07-22T23:50:36;4.30;;;3.83;;
8986;SDS011;4529;51.360;12.474;2023-07-22T23:55:40;5.53;;;4.07;;
